Achille, Oklahoma
Current Conditions -  °F | °C
As of 9:15 AM on Saturday 22 Nov 2014 (Local Time) from KDUA Reporting Station
Light Rain Light Rain  
Wind Chill: 57°   Ceiling: 1100
Heat Index: 57°   Visibility: 10mi
Dew Point: 57°   Wind: 12mph
Humidity: 100%   Direction: 160°SSE
Pressure: 30.05"   Gusts: NA
Location:  33.83°N, 96.39°W
Report Text: KDUA 221515Z AUTO 16010KT 10SM -RA OVC011 14/14 A3005 RMK AO2
Loading
Personal Weather Stations






























Interactive Weather Map New forecast layout! Learn more

10-Day Weather Forecast

Advertisements
Track Severe Weather on mobile